Hovedside
METAR-TAF:

METAR-TAF

Lufthavner :

Livingstone, Zambia

breddegrad: 17-49-18S, lengdegrad: 025-49-22E, høyde over havet: 991 m

METAR: fraværende

Tid: 17:24 (15:24 UTC)

Varsel

Denne rapporten ble laget for 11 timer og 24 minutter siden, klokken 04:00 UTC
Varsel gyldig fra 18. klokken 06 UTC til 19. klokken 12 UTC
Vind 3 kt fra skiftende retning
Sikt 10 km eller mer
ingen skyer under 1500 m og ingen bygeskyer
Blir
fra 18. klokken 07 UTC til 18. klokken 09 UTC
Vind 5 kt fra Øst
Blir
fra 18. klokken 13 UTC til 18. klokken 15 UTC
Vind 10 kt fra Sør-sørøst

TAF: FLHN 180400Z 1806/1912 VRB03KT CAVOK BECMG 1807/1809 09005KT BECMG 1813/1815 15010KT

Værobservasjoner og værvarsel for over 4000 flyplasser (METAR- og TAF-rapporter).

Tilgjengelige stasjoner er representert av de røde og gule prikkene på kartet.

Hold musepekeren over prikken for å se navnet på stasjonen.

Klikk så for å se værobservasjoner og -varsler.

For å forandre kartet kan du klikke på den grønne knappen med svart kryss for å zoome inn, på den grønne knappen med strek for å zoome ut, eller på de grønne pilene for å se tilstøtende kart.


METAR-TAF: